createdAt,value
2022-09-11T00:01:14.374Z,3.20
2022-09-11T00:03:45.121Z,3.15
2022-09-11T00:06:20.433Z,3.38
2022-09-11T00:09:00.948Z,2.95
2022-09-11T00:11:30.741Z,2.65
2022-09-11T00:16:31.446Z,3.28
2022-09-11T00:19:00.790Z,3.42
2022-09-11T00:21:28.131Z,3.15
2022-09-11T00:23:54.882Z,3.50
2022-09-11T00:26:22.244Z,2.88
2022-09-11T00:28:50.693Z,3.10
2022-09-11T00:31:28.104Z,2.78
2022-09-11T00:33:55.222Z,3.30
2022-09-11T00:36:24.496Z,2.97
2022-09-11T00:38:51.654Z,2.97
2022-09-11T00:41:22.965Z,2.92
2022-09-11T00:43:56.984Z,3.40
2022-09-11T00:46:31.402Z,3.30
2022-09-11T00:49:00.709Z,3.40
2022-09-11T00:51:31.132Z,3.47
2022-09-11T00:53:58.632Z,3.45
2022-09-11T00:56:29.632Z,3.63
2022-09-11T00:58:57.917Z,3.25
2022-09-11T01:01:24.489Z,2.92
2022-09-11T01:03:51.321Z,3.92
2022-09-11T01:06:20.984Z,3.38
2022-09-11T01:08:47.507Z,3.53
2022-09-11T01:11:25.835Z,3.97
2022-09-11T01:14:06.980Z,3.92
2022-09-11T01:16:59.871Z,4.00
2022-09-11T01:19:47.283Z,7.32
2022-09-11T01:22:35.685Z,8.48
2022-09-11T01:25:49.837Z,9.23
2022-09-11T01:28:23.309Z,9.00
2022-09-11T01:31:06.158Z,7.80
2022-09-11T01:33:44.853Z,8.48
2022-09-11T01:36:28.796Z,7.73
2022-09-11T01:39:02.333Z,6.20
2022-09-11T01:41:35.731Z,4.13
2022-09-11T01:44:28.894Z,3.70
2022-09-11T01:46:55.848Z,3.80
2022-09-11T01:49:28.068Z,3.78
2022-09-11T01:51:59.142Z,4.75
2022-09-11T01:54:32.801Z,4.18
2022-09-11T01:57:09.682Z,4.75
2022-09-11T01:59:58.943Z,4.78
2022-09-11T02:02:33.045Z,5.35
2022-09-11T02:05:15.608Z,4.28
2022-09-11T02:07:48.824Z,4.53
2022-09-11T02:10:21.133Z,4.68
2022-09-11T02:12:57.758Z,4.70
2022-09-11T02:15:33.607Z,5.07
2022-09-11T02:18:26.981Z,5.05
2022-09-11T02:20:53.751Z,5.28
2022-09-11T02:23:21.282Z,5.25
2022-09-11T02:25:48.208Z,5.28
2022-09-11T02:28:14.750Z,5.88
2022-09-11T02:30:42.977Z,5.30
2022-09-11T02:33:36.490Z,5.15
2022-09-11T02:36:22.427Z,5.50
2022-09-11T02:39:07.767Z,5.90
2022-09-11T02:42:02.616Z,6.18
2022-09-11T02:44:53.806Z,6.10
2022-09-11T02:47:55.939Z,5.90
2022-09-11T02:50:33.185Z,5.43
2022-09-11T02:53:05.720Z,5.03
2022-09-11T02:55:39.243Z,5.53
2022-09-11T02:58:15.041Z,5.78
2022-09-11T03:00:41.882Z,6.30
2022-09-11T03:03:08.383Z,6.13
2022-09-11T03:05:37.188Z,5.30
2022-09-11T03:08:04.410Z,5.53
2022-09-11T03:10:30.929Z,5.32
2022-09-11T03:12:59.666Z,5.00
2022-09-11T03:15:26.942Z,5.40
2022-09-11T03:17:53.441Z,4.80
2022-09-11T03:20:20.869Z,5.28
2022-09-11T03:22:47.548Z,6.25
2022-09-11T03:25:15.138Z,5.18
2022-09-11T03:27:42.197Z,4.82
2022-09-11T03:30:09.424Z,4.85
2022-09-11T03:32:35.910Z,4.70
2022-09-11T03:35:02.482Z,5.35
2022-09-11T03:37:29.107Z,4.95
2022-09-11T03:39:55.876Z,4.57
2022-09-11T03:42:22.651Z,4.45
2022-09-11T03:44:49.144Z,4.30
2022-09-11T03:47:15.659Z,4.40
2022-09-11T03:49:42.144Z,4.30
2022-09-11T03:52:08.641Z,4.10
2022-09-11T03:54:35.600Z,4.53
2022-09-11T03:57:02.110Z,4.40
2022-09-11T03:59:29.116Z,4.65
2022-09-11T04:01:55.733Z,4.30
2022-09-11T04:04:22.455Z,4.40
2022-09-11T04:06:49.005Z,4.40
2022-09-11T04:09:15.583Z,4.30
2022-09-11T04:11:42.035Z,4.85
2022-09-11T04:14:09.047Z,5.03
2022-09-11T04:16:35.615Z,4.53
2022-09-11T04:19:02.703Z,4.75
2022-09-11T04:21:30.027Z,4.43
2022-09-11T04:24:00.379Z,4.35
2022-09-11T04:26:29.742Z,4.75
2022-09-11T04:28:57.221Z,5.22
2022-09-11T04:31:23.709Z,4.55
2022-09-11T04:33:50.389Z,4.53
2022-09-11T04:36:19.267Z,5.15
2022-09-11T04:38:47.088Z,4.93
2022-09-11T04:41:15.877Z,5.32
2022-09-11T04:43:42.704Z,6.80
2022-09-11T04:46:17.583Z,6.70
2022-09-11T04:48:48.728Z,7.47
2022-09-11T04:51:22.892Z,6.53
2022-09-11T04:53:50.338Z,9.30
2022-09-11T04:56:17.358Z,8.57
2022-09-11T04:58:44.211Z,8.68
2022-09-11T05:01:15.757Z,8.77
2022-09-11T05:03:44.017Z,9.48
2022-09-11T05:06:16.457Z,8.10
2022-09-11T05:08:44.765Z,9.50
2022-09-11T05:11:13.500Z,9.18
2022-09-11T05:13:41.182Z,9.30
2022-09-11T05:16:10.933Z,9.25
2022-09-11T05:18:40.048Z,9.05
2022-09-11T05:21:17.936Z,8.38
2022-09-11T05:23:48.083Z,9.15
2022-09-11T05:26:17.119Z,9.05
2022-09-11T05:28:43.903Z,8.50
2022-09-11T05:31:13.473Z,9.38
2022-09-11T05:33:40.467Z,10.68
2022-09-11T05:36:07.638Z,10.43
2022-09-11T05:38:36.654Z,8.93
2022-09-11T05:41:06.367Z,10.15
2022-09-11T05:43:34.058Z,8.73
2022-09-11T05:46:01.946Z,8.50
2022-09-11T05:48:30.105Z,9.27
2022-09-11T05:51:02.247Z,10.13
2022-09-11T05:53:33.812Z,10.70
2022-09-11T05:56:15.884Z,9.85
2022-09-11T05:58:43.826Z,8.00
2022-09-11T06:01:15.614Z,10.82
2022-09-11T06:03:43.063Z,9.77
2022-09-11T06:06:11.987Z,11.35
2022-09-11T06:08:40.069Z,10.73
2022-09-11T06:11:07.784Z,9.20
2022-09-11T06:13:36.950Z,10.90
2022-09-11T06:16:03.471Z,9.93
2022-09-11T06:18:30.270Z,10.18
2022-09-11T06:21:04.175Z,10.55
2022-09-11T06:23:30.653Z,10.65
2022-09-11T06:26:14.218Z,9.70
2022-09-11T06:28:41.287Z,9.82
2022-09-11T06:31:11.427Z,10.00
2022-09-11T06:33:39.926Z,11.43
2022-09-11T06:36:10.675Z,11.13
2022-09-11T06:38:38.402Z,9.32
2022-09-11T06:41:06.708Z,10.13
2022-09-11T06:43:33.994Z,10.15
2022-09-11T06:46:05.695Z,9.95
2022-09-11T06:48:32.274Z,9.95
2022-09-11T06:51:11.400Z,9.52
2022-09-11T06:53:40.233Z,9.23
2022-09-11T06:56:09.532Z,9.93
2022-09-11T06:58:36.052Z,9.50
2022-09-11T07:01:06.879Z,10.35
2022-09-11T07:03:33.476Z,9.90
2022-09-11T07:06:00.439Z,8.98
2022-09-11T07:08:27.501Z,9.27
2022-09-11T07:10:54.526Z,9.25
2022-09-11T07:13:24.314Z,9.48
2022-09-11T07:16:00.361Z,10.20
2022-09-11T07:18:26.867Z,9.88
2022-09-11T07:20:53.333Z,9.73
2022-09-11T07:23:20.068Z,9.85
2022-09-11T07:25:46.618Z,9.18
2022-09-11T07:28:13.076Z,8.55
2022-09-11T07:30:40.553Z,9.48
2022-09-11T07:33:07.118Z,9.60
2022-09-11T07:35:36.989Z,9.95
2022-09-11T07:38:03.554Z,9.90
2022-09-11T07:40:31.309Z,9.55
2022-09-11T07:42:57.792Z,9.23
2022-09-11T07:45:24.343Z,9.77
2022-09-11T07:47:50.868Z,10.85
2022-09-11T07:50:18.094Z,9.73
2022-09-11T07:52:44.649Z,9.10
2022-09-11T07:55:11.203Z,8.07
2022-09-11T07:57:37.768Z,9.20
2022-09-11T08:00:04.598Z,8.82
2022-09-11T08:02:31.109Z,7.93
2022-09-11T08:04:58.233Z,7.28
2022-09-11T08:07:25.518Z,7.57
2022-09-11T08:10:10.136Z,7.75
2022-09-11T08:12:38.484Z,7.18
2022-09-11T08:15:05.331Z,7.43
2022-09-11T08:17:31.807Z,7.03
2022-09-11T08:19:58.284Z,7.10
2022-09-11T08:22:24.791Z,7.65
2022-09-11T08:24:51.289Z,6.85
2022-09-11T08:27:17.825Z,8.10
2022-09-11T08:29:44.689Z,7.10
2022-09-11T08:32:13.207Z,8.88
2022-09-11T08:34:39.720Z,9.67
2022-09-11T08:37:06.249Z,9.00
2022-09-11T08:39:32.727Z,7.93
2022-09-11T08:42:07.766Z,7.70
2022-09-11T08:44:47.724Z,8.00
2022-09-11T08:47:20.612Z,7.38
2022-09-11T08:50:00.972Z,7.05
2022-09-11T08:52:27.602Z,6.40
2022-09-11T08:54:57.928Z,6.15
2022-09-11T08:57:35.103Z,6.28
2022-09-11T09:00:14.568Z,6.72
2022-09-11T09:02:52.165Z,6.40
2022-09-11T09:05:41.901Z,6.28
2022-09-11T09:08:18.009Z,6.15
2022-09-11T09:10:52.845Z,5.63
2022-09-11T09:13:47.062Z,6.00
2022-09-11T09:16:32.475Z,5.60
2022-09-11T09:19:13.048Z,6.68
2022-09-11T09:21:39.497Z,6.38
2022-09-11T09:24:19.332Z,6.70
2022-09-11T09:26:52.716Z,6.20
2022-09-11T09:29:23.348Z,5.65
2022-09-11T09:31:54.949Z,5.13
2022-09-11T09:34:24.654Z,6.45
2022-09-11T09:37:18.026Z,7.28
2022-09-11T09:39:45.679Z,6.65
2022-09-11T09:42:21.111Z,6.10
2022-09-11T09:44:50.684Z,5.85
2022-09-11T09:47:17.810Z,5.55
2022-09-11T09:49:45.411Z,5.47
2022-09-11T09:52:21.110Z,5.72
2022-09-11T09:55:00.432Z,5.50
2022-09-11T10:00:09.985Z,5.95
2022-09-11T10:02:50.934Z,6.60
2022-09-11T10:05:33.045Z,6.00
2022-09-11T10:08:03.082Z,7.15
2022-09-11T10:10:40.649Z,6.32
2022-09-11T10:13:43.783Z,6.47
2022-09-11T10:16:25.008Z,6.00
2022-09-11T10:18:53.278Z,6.13
2022-09-11T10:21:30.261Z,6.38
2022-09-11T10:24:01.068Z,6.25
2022-09-11T10:26:51.437Z,6.00
2022-09-11T10:29:26.674Z,5.68
2022-09-11T10:31:55.456Z,5.40
2022-09-11T10:34:25.402Z,5.85
2022-09-11T10:37:00.467Z,6.30
2022-09-11T10:39:30.612Z,6.40
2022-09-11T10:42:02.105Z,5.95
2022-09-11T10:44:30.739Z,5.07
2022-09-11T10:47:23.067Z,4.77
2022-09-11T10:49:49.721Z,4.80
2022-09-11T10:52:19.673Z,5.00
2022-09-11T10:55:15.831Z,4.65
2022-09-11T10:57:50.835Z,4.85
2022-09-11T11:00:27.385Z,5.32
2022-09-11T11:03:07.355Z,4.50
2022-09-11T11:06:04.153Z,4.47
2022-09-11T11:08:39.477Z,4.80
2022-09-11T11:11:14.753Z,4.85
2022-09-11T11:14:17.334Z,4.70
2022-09-11T11:16:59.630Z,5.10
2022-09-11T11:19:26.079Z,4.03
2022-09-11T11:21:55.303Z,4.80
2022-09-11T11:24:39.036Z,3.97
2022-09-11T11:27:27.521Z,4.00
2022-09-11T11:30:17.162Z,3.80
2022-09-11T11:32:43.592Z,3.42
2022-09-11T11:35:22.059Z,3.80
2022-09-11T11:37:53.248Z,3.93
2022-09-11T11:40:39.417Z,3.70
2022-09-11T11:43:17.580Z,3.58
2022-09-11T11:45:44.764Z,3.20
2022-09-11T11:48:39.601Z,3.10
2022-09-11T11:51:15.285Z,3.17
2022-09-11T11:54:20.518Z,2.80
2022-09-11T11:57:05.142Z,2.70
2022-09-11T12:00:03.226Z,2.40
2022-09-11T12:02:38.683Z,2.50
2022-09-11T12:05:11.416Z,2.40
2022-09-11T12:07:41.256Z,3.10
2022-09-11T12:10:21.737Z,2.83
2022-09-11T12:12:55.628Z,2.67
2022-09-11T12:15:24.640Z,2.90
2022-09-11T12:18:25.693Z,3.03
2022-09-11T12:20:52.960Z,2.67
2022-09-11T12:23:33.031Z,3.25
2022-09-11T12:26:22.346Z,2.80
2022-09-11T12:29:09.767Z,2.83
2022-09-11T12:31:51.615Z,2.10
2022-09-11T12:34:18.792Z,2.47
2022-09-11T12:37:33.196Z,2.20
2022-09-11T12:40:17.060Z,2.20
2022-09-11T12:42:47.716Z,2.50
2022-09-11T12:45:35.923Z,1.90
2022-09-11T12:48:06.252Z,1.97
2022-09-11T12:50:33.440Z,1.90
2022-09-11T12:53:02.499Z,1.85
2022-09-11T12:55:37.395Z,1.70
2022-09-11T12:58:22.274Z,2.00
2022-09-11T13:00:51.432Z,2.40
2022-09-11T13:06:00.164Z,1.80
2022-09-11T13:08:30.425Z,1.50
2022-09-11T13:11:35.140Z,1.70
2022-09-11T13:14:02.076Z,1.52
2022-09-11T13:16:37.150Z,1.65
2022-09-11T13:19:10.240Z,1.70
2022-09-11T13:21:39.194Z,1.50
2022-09-11T13:24:25.768Z,1.65
2022-09-11T13:27:02.193Z,1.60
2022-09-11T13:29:31.100Z,1.70
2022-09-11T13:32:00.656Z,1.65
2022-09-11T13:34:29.452Z,1.67
2022-09-11T13:36:57.734Z,1.40
2022-09-11T13:39:26.487Z,1.40
2022-09-11T13:42:02.699Z,1.50
2022-09-11T13:44:35.488Z,1.50
2022-09-11T13:47:02.142Z,1.45
2022-09-11T13:49:37.174Z,1.40
2022-09-11T13:52:06.250Z,1.48
2022-09-11T13:57:23.872Z,1.85
2022-09-11T13:59:53.626Z,2.40
2022-09-11T14:02:35.728Z,2.20
2022-09-11T14:05:10.438Z,2.78
2022-09-11T14:08:14.879Z,3.58
2022-09-11T14:10:48.733Z,3.17
2022-09-11T14:13:23.069Z,2.95
2022-09-11T14:15:53.189Z,3.10
2022-09-11T14:18:34.360Z,3.40
2022-09-11T14:21:04.310Z,3.25
2022-09-11T14:23:31.377Z,2.92
2022-09-11T14:26:09.080Z,3.17
2022-09-11T14:28:35.497Z,3.03
2022-09-11T14:31:07.781Z,2.83
2022-09-11T14:33:34.523Z,2.90
2022-09-11T14:36:09.171Z,3.08
2022-09-11T14:38:38.232Z,2.70
2022-09-11T14:41:07.078Z,2.53
2022-09-11T14:43:37.575Z,2.88
2022-09-11T14:46:04.319Z,2.47
2022-09-11T14:48:35.112Z,2.35
2022-09-11T14:51:02.841Z,2.60
2022-09-11T14:53:32.039Z,2.08
2022-09-11T14:58:27.341Z,1.92
2022-09-11T15:00:54.892Z,2.40
2022-09-11T15:03:22.216Z,2.17
2022-09-11T15:05:54.513Z,2.50
2022-09-11T15:08:21.051Z,2.13
2022-09-11T15:10:49.019Z,2.10
2022-09-11T15:13:15.594Z,2.10
2022-09-11T15:15:42.351Z,2.20
2022-09-11T15:18:09.456Z,1.83
2022-09-11T15:20:36.492Z,2.75
2022-09-11T15:23:03.073Z,2.33
2022-09-11T15:25:29.685Z,2.33
2022-09-11T15:27:56.414Z,2.80
2022-09-11T15:30:22.978Z,2.63
2022-09-11T15:32:49.611Z,2.80
2022-09-11T15:35:18.272Z,2.40
2022-09-11T15:37:46.776Z,3.13
2022-09-11T15:40:13.855Z,3.23
2022-09-11T15:42:40.605Z,20.95
2022-09-11T15:45:08.075Z,6.28
2022-09-11T15:47:34.642Z,3.20
2022-09-11T15:50:01.857Z,2.90
2022-09-11T15:52:29.474Z,3.20
2022-09-11T15:54:56.655Z,2.78
2022-09-11T15:57:23.221Z,3.25
2022-09-11T15:59:51.563Z,3.00
2022-09-11T16:02:20.575Z,2.92
2022-09-11T16:04:51.631Z,3.40
2022-09-11T16:07:20.128Z,3.10
2022-09-11T16:09:46.664Z,3.92
2022-09-11T16:12:15.711Z,3.58
2022-09-11T16:14:42.960Z,2.90
2022-09-11T16:17:11.950Z,3.60
2022-09-11T16:19:38.753Z,3.38
2022-09-11T16:22:07.059Z,3.28
2022-09-11T16:24:37.660Z,3.53
2022-09-11T16:27:08.736Z,3.63
2022-09-11T16:29:59.333Z,2.85
2022-09-11T16:32:28.636Z,2.97
2022-09-11T16:34:57.169Z,3.33
2022-09-11T16:37:23.936Z,3.37
2022-09-11T16:39:50.819Z,3.70
2022-09-11T16:42:21.756Z,3.30
2022-09-11T16:44:49.637Z,3.85
2022-09-11T16:47:17.204Z,3.38
2022-09-11T16:50:05.768Z,3.72
2022-09-11T16:52:31.175Z,4.35
2022-09-11T16:54:57.700Z,3.72
2022-09-11T16:57:24.216Z,4.10
2022-09-11T16:59:51.000Z,4.07
2022-09-11T17:02:17.638Z,4.22
2022-09-11T17:04:45.371Z,4.57
2022-09-11T17:07:11.938Z,4.38
2022-09-11T17:09:38.757Z,4.07
2022-09-11T17:12:05.313Z,4.05
2022-09-11T17:14:32.642Z,3.80
2022-09-11T17:16:59.125Z,4.70
2022-09-11T17:19:25.685Z,4.60
2022-09-11T17:21:52.278Z,4.70
2022-09-11T17:24:21.702Z,4.57
2022-09-11T17:29:19.488Z,4.40
2022-09-11T17:31:46.781Z,4.07
2022-09-11T17:34:14.651Z,4.22
2022-09-11T17:36:41.459Z,4.70
2022-09-11T17:39:08.815Z,3.88
2022-09-11T17:41:35.405Z,4.28
2022-09-11T17:44:02.000Z,4.55
2022-09-11T17:46:29.552Z,3.95
2022-09-11T17:48:56.266Z,4.30
2022-09-11T17:51:25.720Z,4.30
2022-09-11T17:53:56.241Z,4.55
2022-09-11T17:56:25.876Z,4.47
2022-09-11T17:58:54.733Z,4.38
2022-09-11T18:01:22.832Z,4.55
2022-09-11T18:03:51.330Z,4.70
2022-09-11T18:06:28.343Z,4.60
2022-09-11T18:08:57.762Z,4.03
2022-09-11T18:11:24.858Z,4.82
2022-09-11T18:13:51.420Z,4.90
2022-09-11T18:16:18.074Z,5.82
2022-09-11T18:18:44.628Z,6.03
2022-09-11T18:21:12.314Z,6.68
2022-09-11T18:23:42.019Z,5.82
2022-09-11T18:26:10.317Z,5.43
2022-09-11T18:28:39.742Z,5.70
2022-09-11T18:31:07.161Z,5.20
2022-09-11T18:33:33.771Z,5.53
2022-09-11T18:36:13.440Z,4.93
2022-09-11T18:38:40.385Z,5.18
2022-09-11T18:41:06.945Z,5.07
2022-09-11T18:43:33.557Z,4.93
2022-09-11T18:46:03.200Z,5.32
2022-09-11T18:48:29.783Z,4.60
2022-09-11T18:50:56.530Z,5.10
2022-09-11T18:53:23.389Z,5.43
2022-09-11T18:56:00.210Z,5.03
2022-09-11T18:58:31.127Z,4.93
2022-09-11T19:01:00.542Z,4.80
2022-09-11T19:03:32.746Z,4.75
2022-09-11T19:06:03.626Z,4.90
2022-09-11T19:08:30.414Z,5.03
2022-09-11T19:10:56.867Z,4.80
2022-09-11T19:13:25.937Z,4.97
2022-09-11T19:15:56.885Z,4.60
2022-09-11T19:18:24.238Z,5.07
2022-09-11T19:21:03.889Z,4.50
2022-09-11T19:23:36.165Z,5.18
2022-09-11T19:26:14.664Z,5.05
2022-09-11T19:28:42.700Z,5.13
2022-09-11T19:31:12.135Z,5.38
2022-09-11T19:36:10.742Z,5.40
2022-09-11T19:38:42.821Z,5.43
2022-09-11T19:41:12.713Z,6.28
2022-09-11T19:43:40.980Z,6.32
2022-09-11T19:46:13.683Z,6.25
2022-09-11T19:48:41.046Z,5.80
2022-09-11T19:51:16.126Z,5.85
2022-09-11T19:53:43.327Z,6.63
2022-09-11T19:56:11.519Z,6.65
2022-09-11T19:58:38.878Z,5.70
2022-09-11T20:01:09.178Z,6.40
2022-09-11T20:03:40.873Z,5.80
2022-09-11T20:06:08.910Z,5.72
2022-09-11T20:08:37.239Z,6.20
2022-09-11T20:11:06.844Z,5.43
2022-09-11T20:13:36.122Z,6.28
2022-09-11T20:16:07.067Z,5.82
2022-09-11T20:18:34.444Z,6.32
2022-09-11T20:21:06.275Z,5.80
2022-09-11T20:23:34.533Z,5.28
2022-09-11T20:26:28.676Z,5.60
2022-09-11T20:28:58.229Z,5.38
2022-09-11T20:31:27.694Z,6.00
2022-09-11T20:36:21.518Z,6.72
2022-09-11T20:38:52.658Z,5.15
2022-09-11T20:41:23.202Z,5.93
2022-09-11T20:43:50.196Z,6.15
2022-09-11T20:46:17.022Z,6.15
2022-09-11T20:48:43.584Z,5.88
2022-09-11T20:51:11.994Z,5.50
2022-09-11T20:53:41.660Z,6.07
2022-09-11T20:56:11.168Z,6.15
2022-09-11T21:01:06.382Z,6.43
2022-09-11T21:03:33.151Z,6.22
2022-09-11T21:06:06.887Z,6.00
2022-09-11T21:08:34.242Z,5.82
2022-09-11T21:11:04.934Z,6.05
2022-09-11T21:13:35.154Z,6.38
2022-09-11T21:16:06.427Z,6.15
2022-09-11T21:18:33.000Z,5.50
2022-09-11T21:20:59.564Z,6.60
2022-09-11T21:23:26.223Z,6.07
2022-09-11T21:25:52.975Z,6.07
2022-09-11T21:28:19.779Z,6.22
2022-09-11T21:30:46.343Z,6.13
2022-09-11T21:33:12.857Z,6.45
2022-09-11T21:35:39.639Z,5.85
2022-09-11T21:38:06.199Z,6.47
2022-09-11T21:40:32.764Z,5.50
2022-09-11T21:42:59.235Z,6.43
2022-09-11T21:45:25.783Z,6.10
2022-09-11T21:47:52.305Z,5.75
2022-09-11T21:50:18.903Z,6.30
2022-09-11T21:52:45.394Z,6.05
2022-09-11T21:55:12.178Z,6.93
2022-09-11T21:57:38.727Z,6.60
2022-09-11T22:00:09.362Z,6.75
2022-09-11T22:02:35.986Z,6.47
2022-09-11T22:05:04.066Z,6.20
2022-09-11T22:07:31.799Z,6.97
2022-09-11T22:09:59.208Z,6.68
2022-09-11T22:12:25.960Z,6.60
2022-09-11T22:14:52.997Z,6.32
2022-09-11T22:17:19.517Z,5.97
2022-09-11T22:19:46.079Z,7.07
2022-09-11T22:22:13.592Z,6.35
2022-09-11T22:24:40.433Z,6.30
2022-09-11T22:27:09.410Z,7.05
2022-09-11T22:29:36.992Z,7.07
2022-09-11T22:32:06.501Z,6.85
2022-09-11T22:37:00.539Z,6.05
2022-09-11T22:39:29.203Z,6.00
2022-09-11T22:41:55.916Z,5.87
2022-09-11T22:44:22.555Z,6.40
2022-09-11T22:46:49.107Z,6.70
2022-09-11T22:49:15.692Z,7.88
2022-09-11T22:51:42.219Z,6.03
2022-09-11T22:54:08.737Z,6.20
2022-09-11T22:56:35.259Z,6.60
2022-09-11T22:59:01.738Z,6.47
2022-09-11T23:01:28.303Z,5.78
2022-09-11T23:03:54.921Z,6.45
2022-09-11T23:06:40.322Z,6.03
2022-09-11T23:09:10.486Z,6.40
2022-09-11T23:11:37.088Z,6.15
2022-09-11T23:14:03.670Z,6.55
2022-09-11T23:16:31.225Z,6.68
2022-09-11T23:19:00.524Z,7.47
2022-09-11T23:21:29.480Z,7.25
2022-09-11T23:23:57.542Z,6.47
2022-09-11T23:26:25.487Z,6.80
2022-09-11T23:28:52.540Z,7.38
2022-09-11T23:31:21.871Z,6.53
2022-09-11T23:33:48.727Z,6.82
2022-09-11T23:36:15.782Z,6.90
2022-09-11T23:38:46.647Z,6.85
2022-09-11T23:41:14.661Z,7.03
2022-09-11T23:43:41.796Z,7.05
2022-09-11T23:46:09.030Z,6.38
2022-09-11T23:48:36.089Z,7.13
2022-09-11T23:51:02.622Z,7.05
2022-09-11T23:53:29.851Z,7.63
2022-09-11T23:55:57.257Z,6.72
2022-09-11T23:58:24.726Z,8.00
